Time;durP1;ratioP1;P1;durP2;ratioP2;P2;SDS_P1;SDS_P2;PMS_P1;PMS_P2;Temp;Humidity;BMP_temperature;BMP_pressure;BME280_temperature;BME280_humidity;BME280_pressure;Samples;Min_cycle;Max_cycle;Signal;HPM_P1;HPM_P2
2022/02/09 00:00:53;;;;;;;12.02;4.47;;;;;;;;;;4808715;29;20053;-80
2022/02/09 00:03:23;;;;;;;11.73;4.22;;;;;;;;;;4823611;29;20058;-80
2022/02/09 00:06:02;;;;;;;24.27;6.18;;;;;;;;;;4823749;29;20505;-79
2022/02/09 00:08:28;;;;;;;14.50;5.57;;;;;;;;;;4809855;29;20065;-81
2022/02/09 00:11:01;;;;;;;11.27;5.43;;;;;;;;;;4826946;29;20578;-82
2022/02/09 00:13:45;;;;;;;12.85;5.40;;;;;;;;;;4840436;29;20049;-79
2022/02/09 00:16:32;;;;;;;15.05;5.13;;;;;;;;;;4806457;29;20182;-79
2022/02/09 00:19:05;;;;;;;13.07;5.15;;;;;;;;;;4808622;29;20084;-79
2022/02/09 00:24:27;;;;;;;13.93;4.97;;;;;;;;;;4823278;29;20016;-80
2022/02/09 00:27:15;;;;;;;11.15;4.40;;;;;;;;;;4817460;29;20050;-80
2022/02/09 00:32:29;;;;;;;12.75;5.57;;;;;;;;;;4826352;29;20404;-79
2022/02/09 00:59:03;;;;;;;14.55;4.20;;;;;;;;;;4822773;29;20101;-83
2022/02/09 01:11:32;;;;;;;15.38;4.80;;;;;;;;;;4818986;29;20091;-83
2022/02/09 01:40:28;;;;;;;18.63;4.50;;;;;;;;;;4822442;29;20057;-83
2022/02/09 01:51:15;;;;;;;15.63;4.50;;;;;;;;;;4820773;29;20061;-83
2022/02/09 01:56:27;;;;;;;13.75;4.03;;;;;;;;;;4805591;29;20054;-84
2022/02/09 01:58:53;;;;;;;9.15;3.95;;;;;;;;;;4837395;29;20054;-84
2022/02/09 02:01:19;;;;;;;11.27;4.03;;;;;;;;;;4820741;29;20042;-83
2022/02/09 02:03:45;;;;;;;18.50;4.50;;;;;;;;;;4836190;29;20486;-83
2022/02/09 02:06:16;;;;;;;10.45;3.85;;;;;;;;;;4808887;29;20386;-83
2022/02/09 02:08:46;;;;;;;14.25;4.38;;;;;;;;;;4820966;29;20060;-85
2022/02/09 02:11:32;;;;;;;16.90;3.80;;;;;;;;;;4822824;29;20128;-84
2022/02/09 02:16:40;;;;;;;13.63;4.03;;;;;;;;;;4822562;29;20459;-84
2022/02/09 02:19:12;;;;;;;10.60;4.65;;;;;;;;;;4820807;29;20065;-83
2022/02/09 03:09:10;;;;;;;13.82;6.03;;;;;;;;;;4818812;29;20057;-83
2022/02/09 03:14:16;;;;;;;19.20;5.53;;;;;;;;;;4825018;29;20045;-83
2022/02/09 03:16:51;;;;;;;22.75;6.22;;;;;;;;;;4810472;29;20049;-83
2022/02/09 03:22:31;;;;;;;27.65;6.43;;;;;;;;;;4822821;29;20050;-83
2022/02/09 03:25:49;;;;;;;16.65;6.07;;;;;;;;;;4822356;29;20562;-83
2022/02/09 03:30:57;;;;;;;18.27;6.25;;;;;;;;;;4814612;29;20194;-83
2022/02/09 03:44:34;;;;;;;17.55;5.68;;;;;;;;;;4824649;29;20058;-84
2022/02/09 03:57:41;;;;;;;17.90;5.20;;;;;;;;;;4796957;29;20049;-83
2022/02/09 04:00:07;;;;;;;15.57;5.30;;;;;;;;;;4810350;29;20064;-84
2022/02/09 04:02:33;;;;;;;17.15;4.82;;;;;;;;;;4809811;29;20507;-83
2022/02/09 04:04:59;;;;;;;22.30;5.68;;;;;;;;;;4830181;29;20054;-83
2022/02/09 04:07:25;;;;;;;16.77;5.40;;;;;;;;;;4809737;29;20110;-84
2022/02/09 04:09:56;;;;;;;21.15;5.80;;;;;;;;;;4825041;29;20050;-83
2022/02/09 04:12:34;;;;;;;29.40;5.55;;;;;;;;;;4825149;29;20077;-83
2022/02/09 04:18:34;;;;;;;16.10;5.65;;;;;;;;;;4853268;29;20149;-84
2022/02/09 04:39:25;;;;;;;18.67;4.53;;;;;;;;;;4823602;29;20145;-83
2022/02/09 04:42:03;;;;;;;14.20;4.25;;;;;;;;;;4808376;29;20046;-84
2022/02/09 04:44:47;;;;;;;15.70;4.00;;;;;;;;;;4838585;29;20100;-83
2022/02/09 04:47:36;;;;;;;;;;;;;;;;;;4824865;29;20132;-83
2022/02/09 04:50:10;;;;;;;13.27;3.47;;;;;;;;;;4824311;29;19928;-82
2022/02/09 04:53:03;;;;;;;18.73;4.35;;;;;;;;;;4808413;29;20049;-82
2022/02/09 04:55:41;;;;;;;17.83;3.45;;;;;;;;;;4822061;29;20118;-83
2022/02/09 05:00:52;;;;;;;15.55;3.65;;;;;;;;;;4835903;29;20161;-85
2022/02/09 05:25:02;;;;;;;15.25;4.05;;;;;;;;;;4810145;29;20053;-82
2022/02/09 05:30:05;;;;;;;14.02;4.60;;;;;;;;;;4816525;29;20164;-81
2022/02/09 05:32:32;;;;;;;13.90;4.72;;;;;;;;;;4838679;29;20513;-82
2022/02/09 05:34:58;;;;;;;17.38;4.43;;;;;;;;;;4808081;29;20065;-81
2022/02/09 05:37:24;;;;;;;12.23;4.32;;;;;;;;;;4825963;29;20054;-81
2022/02/09 05:39:50;;;;;;;19.75;4.45;;;;;;;;;;4805927;29;20126;-81
2022/02/09 05:42:16;;;;;;;13.35;3.90;;;;;;;;;;4830524;29;20052;-80
2022/02/09 05:44:42;;;;;;;13.18;4.10;;;;;;;;;;4808620;29;20460;-81
2022/02/09 05:50:01;;;;;;;18.42;4.88;;;;;;;;;;4837215;29;20513;-83
2022/02/09 05:57:47;;;;;;;17.27;4.65;;;;;;;;;;4823001;29;20057;-77
2022/02/09 06:00:15;;;;;;;13.02;3.75;;;;;;;;;;4816104;29;20405;-81
2022/02/09 06:02:41;;;;;;;19.05;5.25;;;;;;;;;;4807945;29;20057;-82
2022/02/09 06:05:07;;;;;;;19.58;4.03;;;;;;;;;;4823712;29;20140;-84
2022/02/09 06:07:33;;;;;;;20.77;4.40;;;;;;;;;;4832937;29;20085;-82
2022/02/09 06:10:00;;;;;;;20.38;4.20;;;;;;;;;;4839001;29;20049;-82
2022/02/09 06:12:40;;;;;;;14.80;4.13;;;;;;;;;;4792196;29;20150;-82
2022/02/09 06:20:24;;;;;;;13.30;3.38;;;;;;;;;;4819539;29;20455;-80
2022/02/09 06:22:50;;;;;;;16.02;4.53;;;;;;;;;;4807124;29;20054;-84
2022/02/09 06:25:16;;;;;;;14.55;3.95;;;;;;;;;;4816729;29;20062;-82
2022/02/09 06:27:42;;;;;;;17.85;4.35;;;;;;;;;;4813177;29;20494;-83
2022/02/09 06:30:09;;;;;;;17.98;4.32;;;;;;;;;;4822406;29;20053;-81
2022/02/09 06:32:35;;;;;;;20.52;3.80;;;;;;;;;;4833592;29;20046;-81
2022/02/09 06:35:01;;;;;;;17.20;4.53;;;;;;;;;;4832439;29;20058;-82
2022/02/09 06:37:40;;;;;;;15.55;3.92;;;;;;;;;;4835061;29;20050;-82
2022/02/09 06:40:07;;;;;;;22.67;4.63;;;;;;;;;;4814184;29;20173;-81
2022/02/09 06:42:35;;;;;;;17.10;4.53;;;;;;;;;;4857856;29;20045;-82
2022/02/09 06:45:08;;;;;;;17.70;3.88;;;;;;;;;;4822429;29;20050;-82
2022/02/09 06:47:37;;;;;;;;;;;;;;;;;;4824712;29;20050;-82
2022/02/09 06:50:07;;;;;;;16.20;4.53;;;;;;;;;;4821780;29;19940;-81
2022/02/09 06:52:37;;;;;;;19.60;5.32;;;;;;;;;;4840793;29;20049;-81
2022/02/09 06:55:21;;;;;;;21.45;5.22;;;;;;;;;;4818757;29;20142;-81
2022/02/09 07:00:17;;;;;;;18.77;5.25;;;;;;;;;;4826689;29;20058;-82
2022/02/09 07:02:44;;;;;;;18.50;5.25;;;;;;;;;;4812109;29;20046;-81
2022/02/09 07:05:10;;;;;;;16.38;4.85;;;;;;;;;;4825959;29;20046;-81
2022/02/09 07:07:36;;;;;;;18.65;4.88;;;;;;;;;;4827442;29;20061;-82
2022/02/09 07:10:03;;;;;;;18.40;5.80;;;;;;;;;;4805084;29;20434;-82
2022/02/09 07:12:29;;;;;;;26.63;6.90;;;;;;;;;;4810587;29;20136;-82
2022/02/09 07:14:55;;;;;;;20.27;5.10;;;;;;;;;;4827127;29;20046;-84
2022/02/09 07:17:21;;;;;;;16.58;4.90;;;;;;;;;;4812145;29;20045;-81
2022/02/09 07:19:55;;;;;;;19.55;4.80;;;;;;;;;;4827581;29;20086;-80
2022/02/09 07:22:26;;;;;;;;;;;;;;;;;;4819311;29;20121;-83
2022/02/09 07:25:04;;;;;;;19.30;4.20;;;;;;;;;;4846017;29;19925;-82
2022/02/09 07:27:47;;;;;;;18.55;4.85;;;;;;;;;;4814876;29;20058;-80
2022/02/09 07:30:14;;;;;;;17.70;3.95;;;;;;;;;;4811388;29;20060;-82
2022/02/09 07:32:40;;;;;;;17.25;4.05;;;;;;;;;;4811382;29;20129;-82
2022/02/09 07:35:06;;;;;;;16.05;4.03;;;;;;;;;;4817367;29;20042;-82
2022/02/09 07:37:32;;;;;;;16.70;4.10;;;;;;;;;;4819442;29;20053;-81
2022/02/09 07:40:00;;;;;;;11.30;3.60;;;;;;;;;;4794397;29;20149;-83
2022/02/09 07:42:26;;;;;;;18.77;3.58;;;;;;;;;;4814206;29;20046;-82
2022/02/09 07:45:29;;;;;;;17.60;3.78;;;;;;;;;;4831551;29;20054;-82
2022/02/09 07:48:13;;;;;;;17.27;4.00;;;;;;;;;;4816249;29;20054;-82
2022/02/09 07:50:43;;;;;;;20.38;4.25;;;;;;;;;;4826858;29;20133;-81
2022/02/09 07:55:36;;;;;;;17.88;3.67;;;;;;;;;;4806124;29;20070;-81
2022/02/09 07:58:03;;;;;;;20.77;4.78;;;;;;;;;;4822167;29;20061;-82
2022/02/09 08:00:29;;;;;;;14.98;4.18;;;;;;;;;;4823769;29;20521;-82
2022/02/09 08:02:55;;;;;;;16.08;3.90;;;;;;;;;;4838733;29;20050;-82
2022/02/09 08:05:21;;;;;;;18.98;4.13;;;;;;;;;;4820013;29;20058;-81
2022/02/09 08:07:48;;;;;;;21.05;4.47;;;;;;;;;;4817139;29;20133;-82
2022/02/09 08:10:25;;;;;;;22.77;6.25;;;;;;;;;;4838232;29;20126;-82
2022/02/09 08:23:51;;;;;;;25.42;5.55;;;;;;;;;;4830720;29;20069;-82
2022/02/09 08:28:50;;;;;;;21.65;4.75;;;;;;;;;;4810672;29;20118;-83
2022/02/09 08:33:47;;;;;;;13.88;4.18;;;;;;;;;;4808177;29;20050;-82
2022/02/09 08:36:13;;;;;;;20.70;3.95;;;;;;;;;;4805193;29;20042;-82
2022/02/09 08:38:42;;;;;;;14.80;3.78;;;;;;;;;;4791372;29;20065;-81
2022/02/09 08:41:09;;;;;;;20.75;4.72;;;;;;;;;;4804204;29;20075;-82
2022/02/09 08:43:35;;;;;;;20.23;4.70;;;;;;;;;;4805252;29;20490;-82
2022/02/09 08:46:01;;;;;;;15.60;4.32;;;;;;;;;;4809640;29;20133;-82
2022/02/09 08:48:27;;;;;;;17.67;3.90;;;;;;;;;;4794097;29;20046;-82
2022/02/09 08:50:53;;;;;;;15.45;4.15;;;;;;;;;;4807357;29;20133;-82
2022/02/09 08:53:20;;;;;;;19.27;4.22;;;;;;;;;;4805057;29;20058;-81
2022/02/09 08:55:47;;;;;;;18.60;5.00;;;;;;;;;;4800849;29;20050;-78
2022/02/09 08:58:16;;;;;;;12.60;4.00;;;;;;;;;;4805949;29;20051;-82
2022/02/09 09:00:42;;;;;;;12.70;4.00;;;;;;;;;;4801322;29;20080;-81
2022/02/09 09:03:25;;;;;;;13.82;3.38;;;;;;;;;;4810606;29;20115;-83
2022/02/09 09:05:55;;;;;;;20.92;5.60;;;;;;;;;;4795521;29;20046;-86
2022/02/09 09:11:19;;;;;;;17.95;4.53;;;;;;;;;;4810123;29;20129;-85
2022/02/09 10:33:00;;;;;;;15.07;3.45;;;;;;;;;;4825255;29;20104;-85
2022/02/09 10:35:35;;;;;;;15.32;4.00;;;;;;;;;;4826557;29;20050;-84
2022/02/09 10:38:18;;;;;;;9.68;3.00;;;;;;;;;;4829998;29;20430;-82
2022/02/09 10:40:49;;;;;;;11.68;3.65;;;;;;;;;;4834521;29;20060;-84
2022/02/09 10:43:32;;;;;;;10.88;3.08;;;;;;;;;;4827546;29;20695;-80
2022/02/09 10:46:09;;;;;;;16.65;3.83;;;;;;;;;;4823588;29;20068;-81
2022/02/09 10:48:39;;;;;;;17.77;3.47;;;;;;;;;;4816377;29;20141;-82
2022/02/09 10:51:51;;;;;;;14.48;3.50;;;;;;;;;;4826565;29;20042;-81
2022/02/09 10:54:17;;;;;;;14.73;4.07;;;;;;;;;;4821901;29;20137;-81
2022/02/09 10:56:55;;;;;;;18.23;3.75;;;;;;;;;;4823917;29;20229;-81
2022/02/09 10:59:23;;;;;;;17.83;3.85;;;;;;;;;;4824405;29;20050;-81
2022/02/09 11:01:49;;;;;;;17.92;3.50;;;;;;;;;;4829259;29;20046;-81
2022/02/09 11:04:16;;;;;;;15.52;3.10;;;;;;;;;;4811792;29;20054;-88
2022/02/09 11:06:44;;;;;;;13.35;3.28;;;;;;;;;;4826377;29;20095;-81
2022/02/09 11:09:11;;;;;;;15.50;4.00;;;;;;;;;;4820418;29;20042;-83
2022/02/09 11:11:39;;;;;;;13.27;2.88;;;;;;;;;;4817237;29;20054;-85
2022/02/09 11:14:05;;;;;;;14.75;2.95;;;;;;;;;;4814153;29;20047;-83
2022/02/09 11:16:34;;;;;;;15.70;3.58;;;;;;;;;;4820092;29;20133;-85
2022/02/09 11:19:01;;;;;;;10.68;2.83;;;;;;;;;;4809391;29;20085;-83
2022/02/09 11:21:32;;;;;;;17.67;3.15;;;;;;;;;;4816713;29;20048;-82
2022/02/09 11:24:06;;;;;;;15.23;2.80;;;;;;;;;;4821633;29;20053;-82
2022/02/09 11:26:37;;;;;;;17.63;2.67;;;;;;;;;;4813766;29;20068;-81
2022/02/09 11:32:42;;;;;;;9.88;2.75;;;;;;;;;;4857572;29;20118;-84
2022/02/09 11:35:36;;;;;;;15.80;3.55;;;;;;;;;;4814618;29;20058;-84
2022/02/09 11:43:27;;;;;;;16.13;3.28;;;;;;;;;;4827831;29;20041;-88
2022/02/09 12:10:47;;;;;;;17.15;4.57;;;;;;;;;;4830639;29;20060;-87
2022/02/09 12:13:41;;;;;;;18.52;4.25;;;;;;;;;;4840482;29;20057;-84
2022/02/09 12:19:11;;;;;;;10.98;3.30;;;;;;;;;;4816236;29;20054;-87
2022/02/09 12:21:44;;;;;;;18.95;4.85;;;;;;;;;;4809510;29;20151;-87
2022/02/09 12:24:17;;;;;;;15.27;4.30;;;;;;;;;;4837836;29;20520;-89
2022/02/09 12:26:59;;;;;;;14.50;4.32;;;;;;;;;;4824591;29;20071;-86
2022/02/09 12:29:30;;;;;;;20.52;5.32;;;;;;;;;;4823846;29;20086;-82
2022/02/09 12:31:56;;;;;;;16.13;3.95;;;;;;;;;;4811203;29;20061;-86
2022/02/09 12:34:23;;;;;;;17.08;4.28;;;;;;;;;;4825310;29;20054;-84
2022/02/09 12:36:49;;;;;;;13.98;4.00;;;;;;;;;;4811009;29;20049;-85
2022/02/09 12:39:17;;;;;;;14.77;4.00;;;;;;;;;;4822037;29;20129;-83
2022/02/09 12:41:44;;;;;;;315.03;78.53;;;;;;;;;;4808021;29;20062;-84
2022/02/09 12:44:10;;;;;;;301.97;75.17;;;;;;;;;;4812018;29;20096;-85
2022/02/09 12:46:45;;;;;;;315.90;81.40;;;;;;;;;;4808595;29;20065;-82
2022/02/09 12:49:15;;;;;;;283.47;68.03;;;;;;;;;;4820443;29;20081;-84
2022/02/09 12:51:43;;;;;;;19.98;4.40;;;;;;;;;;4832461;29;20054;-86
2022/02/09 12:54:10;;;;;;;12.70;4.00;;;;;;;;;;4811732;29;20050;-81
2022/02/09 12:56:41;;;;;;;174.30;55.22;;;;;;;;;;4829969;29;20060;-82
2022/02/09 12:59:09;;;;;;;245.47;69.57;;;;;;;;;;4811043;29;20050;-84
2022/02/09 13:02:02;;;;;;;14.50;4.10;;;;;;;;;;4807194;29;20061;-83
2022/02/09 13:04:35;;;;;;;14.98;4.13;;;;;;;;;;4817700;29;20157;-86
2022/02/09 13:07:07;;;;;;;14.82;3.97;;;;;;;;;;4826217;29;20394;-92
2022/02/09 13:09:33;;;;;;;15.80;4.13;;;;;;;;;;4813063;29;20050;-89
2022/02/09 13:12:00;;;;;;;17.02;4.38;;;;;;;;;;4822762;29;20060;-89
2022/02/09 13:14:47;;;;;;;14.60;3.65;;;;;;;;;;4797133;29;20085;-89
2022/02/09 13:20:14;;;;;;;18.55;3.70;;;;;;;;;;4813202;29;20118;-88
2022/02/09 13:25:42;;;;;;;12.57;3.97;;;;;;;;;;4812206;29;20061;-88
2022/02/09 14:10:52;;;;;;;381.97;102.80;;;;;;;;;;4789577;29;20829;-76
2022/02/09 14:16:29;;;;;;;327.03;78.27;;;;;;;;;;4811201;29;20110;-77
2022/02/09 14:53:05;;;;;;;346.47;89.90;;;;;;;;;;4827287;29;20089;-81
2022/02/09 14:55:48;;;;;;;342.75;81.20;;;;;;;;;;4848481;29;20647;-81
2022/02/09 14:58:16;;;;;;;336.07;82.23;;;;;;;;;;4841632;29;20050;-81
2022/02/09 15:11:26;;;;;;;358.33;89.97;;;;;;;;;;4818355;29;20458;-78
2022/02/09 15:16:30;;;;;;;345.17;92.43;;;;;;;;;;4852657;29;20058;-78
2022/02/09 15:19:55;;;;;;;346.50;95.43;;;;;;;;;;4819371;29;20128;-77
2022/02/09 15:22:01;;;;;;;326.20;84.70;;;;;;;;;;4811009;29;20061;-78
2022/02/09 15:24:35;;;;;;;326.20;81.13;;;;;;;;;;4825688;29;20053;-77
2022/02/09 15:27:03;;;;;;;344.77;86.10;;;;;;;;;;4815284;29;20111;-82
2022/02/09 15:29:29;;;;;;;360.10;94.18;;;;;;;;;;4836225;29;20054;-76
2022/02/09 15:32:00;;;;;;;347.30;88.43;;;;;;;;;;4809148;29;20069;-77
2022/02/09 15:37:44;;;;;;;349.50;86.35;;;;;;;;;;4823441;29;20477;-77
2022/02/09 15:39:48;;;;;;;334.10;80.73;;;;;;;;;;4816277;29;20050;-78
2022/02/09 15:42:33;;;;;;;342.87;83.87;;;;;;;;;;4823319;29;20054;-76
2022/02/09 15:59:24;;;;;;;363.65;91.15;;;;;;;;;;4751348;30;20636;-76
2022/02/09 16:23:30;;;;;;;359.63;87.23;;;;;;;;;;4819181;29;20038;-76
2022/02/09 16:45:02;;;;;;;368.93;92.03;;;;;;;;;;4810879;29;20061;-84
2022/02/09 16:50:14;;;;;;;356.33;84.63;;;;;;;;;;4825970;29;20050;-75
2022/02/09 16:53:05;;;;;;;339.63;80.10;;;;;;;;;;4827432;29;20458;-75
2022/02/09 17:19:52;;;;;;;353.17;82.50;;;;;;;;;;4823868;29;20068;-76
2022/02/09 17:22:18;;;;;;;356.35;83.70;;;;;;;;;;4813345;29;20049;-76
2022/02/09 17:24:44;;;;;;;357.13;83.97;;;;;;;;;;4805978;29;20635;-76
2022/02/09 17:27:17;;;;;;;353.00;85.00;;;;;;;;;;4812121;29;20125;-76
2022/02/09 17:35:35;;;;;;;353.23;84.78;;;;;;;;;;4807833;29;20097;-75
2022/02/09 17:55:02;;;;;;;390.63;92.03;;;;;;;;;;4802209;29;20128;-78
2022/02/09 17:56:58;;;;;;;391.20;95.15;;;;;;;;;;4807599;29;20142;-80
2022/02/09 17:59:25;;;;;;;369.80;86.28;;;;;;;;;;4783000;29;20110;-76
2022/02/09 18:01:52;;;;;;;400.08;95.63;;;;;;;;;;4790588;29;20475;-78
2022/02/09 18:04:20;;;;;;;387.13;93.97;;;;;;;;;;4803482;29;20054;-80
2022/02/09 18:06:55;;;;;;;380.75;88.47;;;;;;;;;;4778129;29;20054;-81
2022/02/09 18:09:30;;;;;;;389.67;92.00;;;;;;;;;;4805693;29;20144;-79
2022/02/09 18:14:46;;;;;;;383.95;85.60;;;;;;;;;;4795813;29;20050;-79
2022/02/09 18:31:14;;;;;;;382.45;89.05;;;;;;;;;;4799631;29;20451;-83
2022/02/09 19:03:07;;;;;;;376.63;84.65;;;;;;;;;;4809897;29;20086;-80
2022/02/09 19:05:40;;;;;;;375.83;84.55;;;;;;;;;;4790616;29;20458;-78
2022/02/09 19:26:43;;;;;;;413.33;105.15;;;;;;;;;;4811902;29;20098;-77
2022/02/09 19:32:19;;;;;;;413.33;95.78;;;;;;;;;;4790522;29;20086;-75
2022/02/09 19:48:21;;;;;;;420.52;102.75;;;;;;;;;;4833821;29;20105;-77
2022/02/09 19:54:03;;;;;;;401.80;96.97;;;;;;;;;;4798182;29;20122;-79
2022/02/09 19:56:29;;;;;;;403.13;93.07;;;;;;;;;;4803435;29;20115;-76
2022/02/09 19:59:02;;;;;;;390.95;94.70;;;;;;;;;;4791782;29;20440;-74
2022/02/09 20:01:34;;;;;;;409.25;101.53;;;;;;;;;;4812744;29;20486;-76
2022/02/09 20:04:00;;;;;;;401.92;94.03;;;;;;;;;;4794252;29;20514;-77
2022/02/09 20:06:26;;;;;;;413.02;105.53;;;;;;;;;;4791798;29;20046;-77
2022/02/09 20:08:53;;;;;;;427.45;106.57;;;;;;;;;;4813139;29;20167;-77
2022/02/09 20:11:19;;;;;;;426.23;105.07;;;;;;;;;;4782874;29;20077;-75
2022/02/09 20:13:50;;;;;;;415.10;102.05;;;;;;;;;;4811953;29;20053;-76
2022/02/09 20:16:20;;;;;;;409.05;101.32;;;;;;;;;;4803904;29;20056;-80
2022/02/09 20:18:46;;;;;;;409.40;97.30;;;;;;;;;;4802804;29;20137;-75
2022/02/09 20:21:13;;;;;;;419.27;104.80;;;;;;;;;;4801625;29;20065;-79
2022/02/09 20:23:39;;;;;;;408.40;102.90;;;;;;;;;;4825544;29;20055;-79
2022/02/09 20:26:11;;;;;;;418.73;103.88;;;;;;;;;;4802559;29;20051;-77
2022/02/09 20:28:41;;;;;;;419.75;103.35;;;;;;;;;;4786254;29;20078;-76
2022/02/09 20:31:11;;;;;;;419.50;106.80;;;;;;;;;;4810554;29;20054;-77
2022/02/09 20:33:44;;;;;;;412.35;105.15;;;;;;;;;;4811492;29;20077;-76
2022/02/09 20:36:12;;;;;;;421.05;104.88;;;;;;;;;;4788334;29;20057;-77
2022/02/09 20:38:39;;;;;;;411.85;101.70;;;;;;;;;;4819085;29;20065;-77
2022/02/09 20:41:09;;;;;;;426.50;103.00;;;;;;;;;;4817139;29;20058;-76
2022/02/09 20:43:58;;;;;;;422.67;109.32;;;;;;;;;;4816335;29;20507;-75
2022/02/09 20:46:26;;;;;;;424.02;106.55;;;;;;;;;;4815917;29;20069;-76
2022/02/09 20:48:52;;;;;;;412.38;99.03;;;;;;;;;;4817781;29;20061;-75
2022/02/09 20:51:18;;;;;;;418.40;103.45;;;;;;;;;;4832592;29;20551;-75
2022/02/09 20:53:44;;;;;;;385.73;92.95;;;;;;;;;;4819170;29;20584;-75
2022/02/09 20:56:10;;;;;;;392.20;93.82;;;;;;;;;;4816564;29;20083;-75
2022/02/09 20:58:38;;;;;;;391.77;93.78;;;;;;;;;;4803200;29;20050;-74
2022/02/09 21:01:09;;;;;;;383.55;99.93;;;;;;;;;;4815727;29;20115;-75
2022/02/09 21:46:06;;;;;;;76.50;21.40;;;;;;;;;;4822943;29;20058;-75
2022/02/09 22:21:14;;;;;;;75.35;29.52;;;;;;;;;;4819059;29;20053;-74
2022/02/09 22:28:56;;;;;;;95.25;28.85;;;;;;;;;;4818198;29;20791;-74
2022/02/09 22:50:39;;;;;;;30.08;12.18;;;;;;;;;;4819595;29;20145;-75
2022/02/09 22:55:50;;;;;;;39.35;13.75;;;;;;;;;;4836386;29;20102;-72
2022/02/09 22:58:17;;;;;;;38.50;13.65;;;;;;;;;;4818243;29;20050;-73
2022/02/09 23:01:05;;;;;;;42.15;14.77;;;;;;;;;;4818005;29;20061;-72
2022/02/09 23:03:44;;;;;;;44.65;15.38;;;;;;;;;;4832328;29;20089;-72
2022/02/09 23:06:26;;;;;;;50.40;15.98;;;;;;;;;;4820055;29;20106;-72
2022/02/09 23:14:02;;;;;;;61.83;22.67;;;;;;;;;;4822098;29;20053;-72
